sensor_id;sensor_type;location;lat;lon;timestamp;temperature;humidity
10388;DHT22;5240;51.128;4.566;2022-11-10T00:01:03;10.20;99.90
10388;DHT22;5240;51.128;4.566;2022-11-10T00:03:30;10.20;99.90
10388;DHT22;5240;51.128;4.566;2022-11-10T00:05:57;10.20;99.90
10388;DHT22;5240;51.128;4.566;2022-11-10T00:08:24;10.10;99.90
10388;DHT22;5240;51.128;4.566;2022-11-10T00:10:51;10.10;99.90
10388;DHT22;5240;51.128;4.566;2022-11-10T00:13:32;10.10;99.90
10388;DHT22;5240;51.128;4.566;2022-11-10T00:16:01;10.10;99.90
10388;DHT22;5240;51.128;4.566;2022-11-10T00:18:46;10.10;99.90
10388;DHT22;5240;51.128;4.566;2022-11-10T00:21:14;10.10;99.90
10388;DHT22;5240;51.128;4.566;2022-11-10T00:23:41;10.10;99.90
10388;DHT22;5240;51.128;4.566;2022-11-10T00:26:14;10.00;99.90
10388;DHT22;5240;51.128;4.566;2022-11-10T00:28:43;10.00;99.90
10388;DHT22;5240;51.128;4.566;2022-11-10T00:31:10;10.00;99.90
10388;DHT22;5240;51.128;4.566;2022-11-10T00:33:38;10.10;99.90
10388;DHT22;5240;51.128;4.566;2022-11-10T00:36:06;10.00;99.90
10388;DHT22;5240;51.128;4.566;2022-11-10T00:38:33;10.00;99.90
10388;DHT22;5240;51.128;4.566;2022-11-10T00:41:00;10.00;99.90
10388;DHT22;5240;51.128;4.566;2022-11-10T00:43:28;10.00;99.90
10388;DHT22;5240;51.128;4.566;2022-11-10T00:45:57;10.00;99.90
10388;DHT22;5240;51.128;4.566;2022-11-10T00:48:24;10.00;99.90
10388;DHT22;5240;51.128;4.566;2022-11-10T00:50:51;9.90;99.90
10388;DHT22;5240;51.128;4.566;2022-11-10T00:53:18;9.90;99.90
10388;DHT22;5240;51.128;4.566;2022-11-10T00:55:45;9.90;99.90
10388;DHT22;5240;51.128;4.566;2022-11-10T00:58:13;9.90;99.90
10388;DHT22;5240;51.128;4.566;2022-11-10T01:00:40;9.80;99.90
10388;DHT22;5240;51.128;4.566;2022-11-10T01:03:12;9.80;99.90
10388;DHT22;5240;51.128;4.566;2022-11-10T01:05:39;9.80;99.90
10388;DHT22;5240;51.128;4.566;2022-11-10T01:08:06;9.80;99.90
10388;DHT22;5240;51.128;4.566;2022-11-10T01:10:33;9.70;99.90
10388;DHT22;5240;51.128;4.566;2022-11-10T01:13:00;9.80;99.90
10388;DHT22;5240;51.128;4.566;2022-11-10T01:15:27;9.70;99.90
10388;DHT22;5240;51.128;4.566;2022-11-10T01:17:55;9.70;99.90
10388;DHT22;5240;51.128;4.566;2022-11-10T01:20:24;9.70;99.90
10388;DHT22;5240;51.128;4.566;2022-11-10T01:22:51;9.70;99.90
10388;DHT22;5240;51.128;4.566;2022-11-10T01:25:18;9.70;99.90
10388;DHT22;5240;51.128;4.566;2022-11-10T01:27:45;9.60;99.90
10388;DHT22;5240;51.128;4.566;2022-11-10T01:30:12;9.60;99.90
10388;DHT22;5240;51.128;4.566;2022-11-10T01:32:39;9.60;99.90
10388;DHT22;5240;51.128;4.566;2022-11-10T01:35:07;9.60;99.90
10388;DHT22;5240;51.128;4.566;2022-11-10T01:37:36;9.60;99.90
10388;DHT22;5240;51.128;4.566;2022-11-10T01:40:05;9.50;99.90
10388;DHT22;5240;51.128;4.566;2022-11-10T01:42:47;9.50;99.90
10388;DHT22;5240;51.128;4.566;2022-11-10T01:45:46;9.50;99.90
10388;DHT22;5240;51.128;4.566;2022-11-10T01:48:17;9.50;99.90
10388;DHT22;5240;51.128;4.566;2022-11-10T01:50:46;9.40;99.90
10388;DHT22;5240;51.128;4.566;2022-11-10T01:53:19;9.40;99.90
10388;DHT22;5240;51.128;4.566;2022-11-10T01:55:47;9.40;99.90
10388;DHT22;5240;51.128;4.566;2022-11-10T01:58:16;9.40;99.90
10388;DHT22;5240;51.128;4.566;2022-11-10T02:00:45;9.40;99.90
10388;DHT22;5240;51.128;4.566;2022-11-10T02:03:15;9.40;99.90
10388;DHT22;5240;51.128;4.566;2022-11-10T02:05:44;9.30;99.90
10388;DHT22;5240;51.128;4.566;2022-11-10T02:08:14;9.30;99.90
10388;DHT22;5240;51.128;4.566;2022-11-10T02:10:42;9.30;99.90
10388;DHT22;5240;51.128;4.566;2022-11-10T02:13:10;9.30;99.90
10388;DHT22;5240;51.128;4.566;2022-11-10T02:15:37;9.30;99.90
10388;DHT22;5240;51.128;4.566;2022-11-10T02:18:05;9.30;99.90
10388;DHT22;5240;51.128;4.566;2022-11-10T02:20:32;9.30;99.90
10388;DHT22;5240;51.128;4.566;2022-11-10T02:23:10;9.30;99.90
10388;DHT22;5240;51.128;4.566;2022-11-10T02:25:37;9.30;99.90
10388;DHT22;5240;51.128;4.566;2022-11-10T02:28:04;9.30;99.90
10388;DHT22;5240;51.128;4.566;2022-11-10T02:30:31;9.30;99.90
10388;DHT22;5240;51.128;4.566;2022-11-10T02:32:58;9.30;99.90
10388;DHT22;5240;51.128;4.566;2022-11-10T02:35:27;9.30;99.90
10388;DHT22;5240;51.128;4.566;2022-11-10T02:37:54;9.30;99.90
10388;DHT22;5240;51.128;4.566;2022-11-10T02:40:22;9.30;99.90
10388;DHT22;5240;51.128;4.566;2022-11-10T02:42:49;9.30;99.90
10388;DHT22;5240;51.128;4.566;2022-11-10T02:45:16;9.30;99.90
10388;DHT22;5240;51.128;4.566;2022-11-10T02:47:43;9.30;99.90
10388;DHT22;5240;51.128;4.566;2022-11-10T02:50:10;9.30;99.90
10388;DHT22;5240;51.128;4.566;2022-11-10T02:52:37;9.30;99.90
10388;DHT22;5240;51.128;4.566;2022-11-10T02:55:05;9.20;99.90
10388;DHT22;5240;51.128;4.566;2022-11-10T02:57:33;9.20;99.90
10388;DHT22;5240;51.128;4.566;2022-11-10T03:00:00;9.20;99.90
10388;DHT22;5240;51.128;4.566;2022-11-10T03:02:27;9.20;99.90
10388;DHT22;5240;51.128;4.566;2022-11-10T03:04:54;9.20;99.90
10388;DHT22;5240;51.128;4.566;2022-11-10T03:07:21;9.20;99.90
10388;DHT22;5240;51.128;4.566;2022-11-10T03:09:48;9.20;99.90
10388;DHT22;5240;51.128;4.566;2022-11-10T03:12:15;9.20;99.90
10388;DHT22;5240;51.128;4.566;2022-11-10T03:14:44;9.20;99.90
10388;DHT22;5240;51.128;4.566;2022-11-10T03:17:11;9.20;99.90
10388;DHT22;5240;51.128;4.566;2022-11-10T03:19:38;9.10;99.90
10388;DHT22;5240;51.128;4.566;2022-11-10T03:22:04;9.10;99.90
10388;DHT22;5240;51.128;4.566;2022-11-10T03:24:31;9.10;99.90
10388;DHT22;5240;51.128;4.566;2022-11-10T03:26:58;9.10;99.90
10388;DHT22;5240;51.128;4.566;2022-11-10T03:29:25;9.10;99.90
10388;DHT22;5240;51.128;4.566;2022-11-10T03:31:54;9.10;99.90
10388;DHT22;5240;51.128;4.566;2022-11-10T03:34:21;9.10;99.90
10388;DHT22;5240;51.128;4.566;2022-11-10T03:36:48;9.10;99.90
10388;DHT22;5240;51.128;4.566;2022-11-10T03:39:15;9.10;99.90
10388;DHT22;5240;51.128;4.566;2022-11-10T03:41:42;9.10;99.90
10388;DHT22;5240;51.128;4.566;2022-11-10T03:44:09;9.10;99.90
10388;DHT22;5240;51.128;4.566;2022-11-10T03:46:36;9.10;99.90
10388;DHT22;5240;51.128;4.566;2022-11-10T03:49:05;9.10;99.90
10388;DHT22;5240;51.128;4.566;2022-11-10T03:51:31;9.10;99.90
10388;DHT22;5240;51.128;4.566;2022-11-10T03:53:58;9.20;99.90
10388;DHT22;5240;51.128;4.566;2022-11-10T03:56:25;9.30;99.90
10388;DHT22;5240;51.128;4.566;2022-11-10T03:58:52;9.30;99.90
10388;DHT22;5240;51.128;4.566;2022-11-10T04:01:19;9.40;99.90
10388;DHT22;5240;51.128;4.566;2022-11-10T04:03:48;9.50;99.90
10388;DHT22;5240;51.128;4.566;2022-11-10T04:06:16;9.60;99.90
10388;DHT22;5240;51.128;4.566;2022-11-10T04:09:01;9.60;99.90
10388;DHT22;5240;51.128;4.566;2022-11-10T04:11:29;9.70;99.90
10388;DHT22;5240;51.128;4.566;2022-11-10T04:14:14;9.70;99.90
10388;DHT22;5240;51.128;4.566;2022-11-10T04:16:59;9.80;99.90
10388;DHT22;5240;51.128;4.566;2022-11-10T04:19:26;9.80;99.90
10388;DHT22;5240;51.128;4.566;2022-11-10T04:21:55;9.80;99.90
10388;DHT22;5240;51.128;4.566;2022-11-10T04:24:22;9.80;99.90
10388;DHT22;5240;51.128;4.566;2022-11-10T04:26:49;9.80;99.90
10388;DHT22;5240;51.128;4.566;2022-11-10T04:29:18;9.70;99.90
10388;DHT22;5240;51.128;4.566;2022-11-10T04:31:45;9.80;99.90
10388;DHT22;5240;51.128;4.566;2022-11-10T04:34:13;9.70;99.90
10388;DHT22;5240;51.128;4.566;2022-11-10T04:36:42;9.70;99.90
10388;DHT22;5240;51.128;4.566;2022-11-10T04:39:11;9.60;99.90
10388;DHT22;5240;51.128;4.566;2022-11-10T04:41:37;9.60;99.90
10388;DHT22;5240;51.128;4.566;2022-11-10T04:44:05;9.50;99.90
10388;DHT22;5240;51.128;4.566;2022-11-10T04:46:34;9.50;99.90
10388;DHT22;5240;51.128;4.566;2022-11-10T04:49:02;9.50;99.90
10388;DHT22;5240;51.128;4.566;2022-11-10T04:51:31;9.50;99.90
10388;DHT22;5240;51.128;4.566;2022-11-10T04:53:58;9.50;99.90
10388;DHT22;5240;51.128;4.566;2022-11-10T04:56:27;9.50;99.90
10388;DHT22;5240;51.128;4.566;2022-11-10T04:58:55;9.50;99.90
10388;DHT22;5240;51.128;4.566;2022-11-10T05:01:24;9.50;99.90
10388;DHT22;5240;51.128;4.566;2022-11-10T05:03:52;9.40;99.90
10388;DHT22;5240;51.128;4.566;2022-11-10T05:06:20;9.40;99.90
10388;DHT22;5240;51.128;4.566;2022-11-10T05:08:47;9.40;99.90
10388;DHT22;5240;51.128;4.566;2022-11-10T05:11:14;9.30;99.90
10388;DHT22;5240;51.128;4.566;2022-11-10T05:13:44;9.30;99.90
10388;DHT22;5240;51.128;4.566;2022-11-10T05:16:11;9.30;99.90
10388;DHT22;5240;51.128;4.566;2022-11-10T05:18:38;9.30;99.90
10388;DHT22;5240;51.128;4.566;2022-11-10T05:21:06;9.30;99.90
10388;DHT22;5240;51.128;4.566;2022-11-10T05:23:33;9.20;99.90
10388;DHT22;5240;51.128;4.566;2022-11-10T05:26:08;9.20;99.90
10388;DHT22;5240;51.128;4.566;2022-11-10T05:28:35;9.20;99.90
10388;DHT22;5240;51.128;4.566;2022-11-10T05:31:04;9.20;99.90
10388;DHT22;5240;51.128;4.566;2022-11-10T05:33:31;9.20;99.90
10388;DHT22;5240;51.128;4.566;2022-11-10T05:35:59;9.10;99.90
10388;DHT22;5240;51.128;4.566;2022-11-10T05:38:26;9.10;99.90
10388;DHT22;5240;51.128;4.566;2022-11-10T05:40:53;9.10;99.90
10388;DHT22;5240;51.128;4.566;2022-11-10T05:43:20;9.10;99.90
10388;DHT22;5240;51.128;4.566;2022-11-10T05:45:47;9.10;99.90
10388;DHT22;5240;51.128;4.566;2022-11-10T05:48:16;9.10;99.90
10388;DHT22;5240;51.128;4.566;2022-11-10T05:50:44;9.00;99.90
10388;DHT22;5240;51.128;4.566;2022-11-10T05:53:12;9.10;99.90
10388;DHT22;5240;51.128;4.566;2022-11-10T05:55:39;9.00;99.90
10388;DHT22;5240;51.128;4.566;2022-11-10T05:58:06;9.00;99.90
10388;DHT22;5240;51.128;4.566;2022-11-10T06:00:33;9.00;99.90
10388;DHT22;5240;51.128;4.566;2022-11-10T06:03:02;9.00;99.90
10388;DHT22;5240;51.128;4.566;2022-11-10T06:05:32;9.00;99.90
10388;DHT22;5240;51.128;4.566;2022-11-10T06:08:00;9.00;99.90
10388;DHT22;5240;51.128;4.566;2022-11-10T06:10:27;9.00;99.90
10388;DHT22;5240;51.128;4.566;2022-11-10T06:12:55;9.00;99.90
10388;DHT22;5240;51.128;4.566;2022-11-10T06:15:22;8.90;99.90
10388;DHT22;5240;51.128;4.566;2022-11-10T06:17:49;8.90;99.90
10388;DHT22;5240;51.128;4.566;2022-11-10T06:20:17;9.00;99.90
10388;DHT22;5240;51.128;4.566;2022-11-10T06:22:56;9.00;99.90
10388;DHT22;5240;51.128;4.566;2022-11-10T06:25:24;8.90;99.90
10388;DHT22;5240;51.128;4.566;2022-11-10T06:27:51;8.90;99.90
10388;DHT22;5240;51.128;4.566;2022-11-10T06:30:18;8.90;99.90
10388;DHT22;5240;51.128;4.566;2022-11-10T06:32:45;8.90;99.90
10388;DHT22;5240;51.128;4.566;2022-11-10T06:35:12;8.90;99.90
10388;DHT22;5240;51.128;4.566;2022-11-10T06:37:40;8.90;99.90
10388;DHT22;5240;51.128;4.566;2022-11-10T06:40:10;8.90;99.90
10388;DHT22;5240;51.128;4.566;2022-11-10T06:42:38;8.90;99.90
10388;DHT22;5240;51.128;4.566;2022-11-10T06:45:06;8.90;99.90
10388;DHT22;5240;51.128;4.566;2022-11-10T06:47:33;8.90;99.90
10388;DHT22;5240;51.128;4.566;2022-11-10T06:50:00;9.00;99.90
10388;DHT22;5240;51.128;4.566;2022-11-10T06:52:27;9.00;99.90
10388;DHT22;5240;51.128;4.566;2022-11-10T06:54:56;9.00;99.90
10388;DHT22;5240;51.128;4.566;2022-11-10T06:57:24;8.90;99.90
10388;DHT22;5240;51.128;4.566;2022-11-10T06:59:52;8.90;99.90
10388;DHT22;5240;51.128;4.566;2022-11-10T07:02:19;8.90;99.90
10388;DHT22;5240;51.128;4.566;2022-11-10T07:04:46;8.90;99.90
10388;DHT22;5240;51.128;4.566;2022-11-10T07:07:15;9.00;99.90
10388;DHT22;5240;51.128;4.566;2022-11-10T07:09:42;9.00;99.90
10388;DHT22;5240;51.128;4.566;2022-11-10T07:12:09;9.00;99.90
10388;DHT22;5240;51.128;4.566;2022-11-10T07:14:37;9.00;99.90
10388;DHT22;5240;51.128;4.566;2022-11-10T07:17:04;9.00;99.90
10388;DHT22;5240;51.128;4.566;2022-11-10T07:19:31;9.00;99.90
10388;DHT22;5240;51.128;4.566;2022-11-10T07:21:59;9.00;99.90
10388;DHT22;5240;51.128;4.566;2022-11-10T07:24:27;9.00;99.90
10388;DHT22;5240;51.128;4.566;2022-11-10T07:26:56;9.10;99.90
10388;DHT22;5240;51.128;4.566;2022-11-10T07:29:24;9.10;99.90
10388;DHT22;5240;51.128;4.566;2022-11-10T07:31:54;9.10;99.90
10388;DHT22;5240;51.128;4.566;2022-11-10T07:34:22;9.20;99.90
10388;DHT22;5240;51.128;4.566;2022-11-10T07:36:50;9.20;99.90
10388;DHT22;5240;51.128;4.566;2022-11-10T07:39:17;9.20;99.90
10388;DHT22;5240;51.128;4.566;2022-11-10T07:41:44;9.20;99.90
10388;DHT22;5240;51.128;4.566;2022-11-10T07:44:11;9.30;99.90
10388;DHT22;5240;51.128;4.566;2022-11-10T07:46:38;9.40;99.90
10388;DHT22;5240;51.128;4.566;2022-11-10T07:49:06;9.60;99.90
10388;DHT22;5240;51.128;4.566;2022-11-10T07:51:33;9.80;99.90
10388;DHT22;5240;51.128;4.566;2022-11-10T07:54:00;9.80;99.90
10388;DHT22;5240;51.128;4.566;2022-11-10T07:56:27;9.80;99.90
10388;DHT22;5240;51.128;4.566;2022-11-10T07:58:54;9.80;99.90
10388;DHT22;5240;51.128;4.566;2022-11-10T08:01:21;9.80;99.90
10388;DHT22;5240;51.128;4.566;2022-11-10T08:03:49;9.90;99.90
10388;DHT22;5240;51.128;4.566;2022-11-10T08:06:17;9.90;99.90
10388;DHT22;5240;51.128;4.566;2022-11-10T08:08:45;10.10;99.90
10388;DHT22;5240;51.128;4.566;2022-11-10T08:11:12;10.10;99.90
10388;DHT22;5240;51.128;4.566;2022-11-10T08:13:40;10.10;99.90
10388;DHT22;5240;51.128;4.566;2022-11-10T08:16:07;10.10;99.90
10388;DHT22;5240;51.128;4.566;2022-11-10T08:18:35;10.20;99.90
10388;DHT22;5240;51.128;4.566;2022-11-10T08:21:03;10.20;99.90
10388;DHT22;5240;51.128;4.566;2022-11-10T08:23:31;10.30;99.90
10388;DHT22;5240;51.128;4.566;2022-11-10T08:25:59;10.40;99.90
10388;DHT22;5240;51.128;4.566;2022-11-10T08:28:27;10.40;99.90
10388;DHT22;5240;51.128;4.566;2022-11-10T08:30:55;10.50;99.90
10388;DHT22;5240;51.128;4.566;2022-11-10T08:33:22;10.60;99.90
10388;DHT22;5240;51.128;4.566;2022-11-10T08:35:51;10.70;99.90
10388;DHT22;5240;51.128;4.566;2022-11-10T08:38:19;10.90;99.90
10388;DHT22;5240;51.128;4.566;2022-11-10T08:40:48;11.10;99.90
10388;DHT22;5240;51.128;4.566;2022-11-10T08:43:15;11.40;99.90
10388;DHT22;5240;51.128;4.566;2022-11-10T08:45:44;11.50;99.90
10388;DHT22;5240;51.128;4.566;2022-11-10T08:48:12;11.50;99.90
10388;DHT22;5240;51.128;4.566;2022-11-10T08:50:39;11.60;99.90
10388;DHT22;5240;51.128;4.566;2022-11-10T08:53:10;11.80;99.90
10388;DHT22;5240;51.128;4.566;2022-11-10T08:55:41;12.20;99.90
10388;DHT22;5240;51.128;4.566;2022-11-10T08:58:12;12.60;99.90
10388;DHT22;5240;51.128;4.566;2022-11-10T09:00:39;12.90;99.90
10388;DHT22;5240;51.128;4.566;2022-11-10T09:03:09;13.00;99.90
10388;DHT22;5240;51.128;4.566;2022-11-10T09:05:37;13.30;99.90
10388;DHT22;5240;51.128;4.566;2022-11-10T09:08:05;13.50;99.90
10388;DHT22;5240;51.128;4.566;2022-11-10T09:10:34;14.00;99.90
10388;DHT22;5240;51.128;4.566;2022-11-10T09:13:03;14.40;99.90
10388;DHT22;5240;51.128;4.566;2022-11-10T09:15:32;14.60;99.90
10388;DHT22;5240;51.128;4.566;2022-11-10T09:18:01;15.00;99.90
10388;DHT22;5240;51.128;4.566;2022-11-10T09:20:30;15.50;99.90
10388;DHT22;5240;51.128;4.566;2022-11-10T09:23:06;15.90;99.90
10388;DHT22;5240;51.128;4.566;2022-11-10T09:25:34;16.00;99.90
10388;DHT22;5240;51.128;4.566;2022-11-10T09:28:04;15.80;99.90
10388;DHT22;5240;51.128;4.566;2022-11-10T09:30:32;15.80;99.90
10388;DHT22;5240;51.128;4.566;2022-11-10T09:33:00;16.10;99.90
10388;DHT22;5240;51.128;4.566;2022-11-10T09:35:29;16.50;99.90
10388;DHT22;5240;51.128;4.566;2022-11-10T10:01:46;13.30;99.90
10388;DHT22;5240;51.128;4.566;2022-11-10T10:04:26;13.30;99.90
10388;DHT22;5240;51.128;4.566;2022-11-10T10:07:05;13.30;99.90
10388;DHT22;5240;51.128;4.566;2022-11-10T10:09:47;13.30;99.90
10388;DHT22;5240;51.128;4.566;2022-11-10T10:18:08;13.50;99.90
10388;DHT22;5240;51.128;4.566;2022-11-10T10:20:45;13.60;99.90
10388;DHT22;5240;51.128;4.566;2022-11-10T10:23:22;13.70;99.90
10388;DHT22;5240;51.128;4.566;2022-11-10T10:25:52;13.70;99.90
10388;DHT22;5240;51.128;4.566;2022-11-10T10:28:29;13.70;99.90
10388;DHT22;5240;51.128;4.566;2022-11-10T10:31:10;13.80;99.90
10388;DHT22;5240;51.128;4.566;2022-11-10T10:33:40;13.90;99.90
10388;DHT22;5240;51.128;4.566;2022-11-10T10:36:13;13.90;99.90
10388;DHT22;5240;51.128;4.566;2022-11-10T10:38:43;14.00;99.90
10388;DHT22;5240;51.128;4.566;2022-11-10T10:41:27;14.00;99.90
10388;DHT22;5240;51.128;4.566;2022-11-10T10:43:57;14.10;99.90
10388;DHT22;5240;51.128;4.566;2022-11-10T10:46:24;14.20;99.90
10388;DHT22;5240;51.128;4.566;2022-11-10T10:49:12;14.30;99.90
10388;DHT22;5240;51.128;4.566;2022-11-10T10:51:41;14.40;99.90
10388;DHT22;5240;51.128;4.566;2022-11-10T10:54:23;14.50;99.90
10388;DHT22;5240;51.128;4.566;2022-11-10T10:57:00;14.50;99.90
10388;DHT22;5240;51.128;4.566;2022-11-10T10:59:28;14.50;99.90
10388;DHT22;5240;51.128;4.566;2022-11-10T11:01:55;14.50;99.90
10388;DHT22;5240;51.128;4.566;2022-11-10T11:04:30;14.40;99.90
10388;DHT22;5240;51.128;4.566;2022-11-10T11:06:59;14.50;99.90
10388;DHT22;5240;51.128;4.566;2022-11-10T11:20:12;14.50;99.90
10388;DHT22;5240;51.128;4.566;2022-11-10T11:22:47;14.60;99.90
10388;DHT22;5240;51.128;4.566;2022-11-10T11:25:20;14.50;99.90
10388;DHT22;5240;51.128;4.566;2022-11-10T11:27:55;14.50;99.90
10388;DHT22;5240;51.128;4.566;2022-11-10T11:30:33;14.40;99.90
10388;DHT22;5240;51.128;4.566;2022-11-10T11:33:13;14.30;99.90
10388;DHT22;5240;51.128;4.566;2022-11-10T11:35:48;14.30;99.90
10388;DHT22;5240;51.128;4.566;2022-11-10T11:38:22;14.30;99.90
10388;DHT22;5240;51.128;4.566;2022-11-10T11:40:55;14.40;99.90
10388;DHT22;5240;51.128;4.566;2022-11-10T11:43:38;14.40;99.90
10388;DHT22;5240;51.128;4.566;2022-11-10T11:46:16;14.50;99.90
10388;DHT22;5240;51.128;4.566;2022-11-10T11:48:53;14.40;99.90
10388;DHT22;5240;51.128;4.566;2022-11-10T11:51:30;14.40;99.90
10388;DHT22;5240;51.128;4.566;2022-11-10T11:54:20;14.50;99.90
10388;DHT22;5240;51.128;4.566;2022-11-10T11:56:50;14.50;99.90
10388;DHT22;5240;51.128;4.566;2022-11-10T11:59:33;14.60;99.90
10388;DHT22;5240;51.128;4.566;2022-11-10T12:02:27;14.60;99.90
10388;DHT22;5240;51.128;4.566;2022-11-10T12:05:10;14.70;99.90
10388;DHT22;5240;51.128;4.566;2022-11-10T12:07:48;14.70;99.90
10388;DHT22;5240;51.128;4.566;2022-11-10T12:10:30;14.70;99.90
10388;DHT22;5240;51.128;4.566;2022-11-10T12:13:24;14.80;99.90
10388;DHT22;5240;51.128;4.566;2022-11-10T12:15:56;14.90;99.90
10388;DHT22;5240;51.128;4.566;2022-11-10T12:18:30;15.00;99.90
10388;DHT22;5240;51.128;4.566;2022-11-10T12:21:10;14.90;99.90
10388;DHT22;5240;51.128;4.566;2022-11-10T12:23:48;15.00;99.90
10388;DHT22;5240;51.128;4.566;2022-11-10T12:26:27;15.00;99.90
10388;DHT22;5240;51.128;4.566;2022-11-10T12:29:01;15.10;99.90
10388;DHT22;5240;51.128;4.566;2022-11-10T12:31:33;15.10;99.90
10388;DHT22;5240;51.128;4.566;2022-11-10T12:34:05;15.10;99.90
10388;DHT22;5240;51.128;4.566;2022-11-10T12:36:36;15.20;99.90
10388;DHT22;5240;51.128;4.566;2022-11-10T12:39:12;15.20;99.90
10388;DHT22;5240;51.128;4.566;2022-11-10T12:41:45;15.30;99.90
10388;DHT22;5240;51.128;4.566;2022-11-10T12:44:19;15.30;99.90
10388;DHT22;5240;51.128;4.566;2022-11-10T12:46:50;15.30;99.90
10388;DHT22;5240;51.128;4.566;2022-11-10T12:49:24;15.30;99.90
10388;DHT22;5240;51.128;4.566;2022-11-10T12:52:00;15.30;99.90
10388;DHT22;5240;51.128;4.566;2022-11-10T12:54:34;15.30;99.90
10388;DHT22;5240;51.128;4.566;2022-11-10T12:57:10;15.30;99.90
10388;DHT22;5240;51.128;4.566;2022-11-10T12:59:54;15.20;99.90
10388;DHT22;5240;51.128;4.566;2022-11-10T13:02:27;15.10;99.90
10388;DHT22;5240;51.128;4.566;2022-11-10T13:11:00;14.90;99.90
10388;DHT22;5240;51.128;4.566;2022-11-10T13:13:28;14.90;99.90
10388;DHT22;5240;51.128;4.566;2022-11-10T13:15:57;14.90;99.90
10388;DHT22;5240;51.128;4.566;2022-11-10T13:18:58;14.90;99.90
10388;DHT22;5240;51.128;4.566;2022-11-10T13:24:32;14.90;99.90
10388;DHT22;5240;51.128;4.566;2022-11-10T13:34:09;14.90;99.90
10388;DHT22;5240;51.128;4.566;2022-11-10T13:36:53;14.90;99.90
10388;DHT22;5240;51.128;4.566;2022-11-10T13:41:58;15.00;99.90
10388;DHT22;5240;51.128;4.566;2022-11-10T14:00:06;14.80;99.90
10388;DHT22;5240;51.128;4.566;2022-11-10T14:02:54;14.80;99.90
10388;DHT22;5240;51.128;4.566;2022-11-10T14:06:04;14.80;99.90
10388;DHT22;5240;51.128;4.566;2022-11-10T14:08:47;14.80;99.90
10388;DHT22;5240;51.128;4.566;2022-11-10T14:11:20;14.80;99.90
10388;DHT22;5240;51.128;4.566;2022-11-10T14:13:53;14.70;99.90
10388;DHT22;5240;51.128;4.566;2022-11-10T14:16:25;14.70;99.90
10388;DHT22;5240;51.128;4.566;2022-11-10T14:19:00;14.70;99.90
10388;DHT22;5240;51.128;4.566;2022-11-10T14:21:35;14.70;99.90
10388;DHT22;5240;51.128;4.566;2022-11-10T14:24:16;14.60;99.90
10388;DHT22;5240;51.128;4.566;2022-11-10T14:26:49;14.60;99.90
10388;DHT22;5240;51.128;4.566;2022-11-10T14:29:29;14.60;99.90
10388;DHT22;5240;51.128;4.566;2022-11-10T14:32:14;14.50;99.90
10388;DHT22;5240;51.128;4.566;2022-11-10T14:34:45;14.50;99.90
10388;DHT22;5240;51.128;4.566;2022-11-10T14:37:24;14.50;99.90
10388;DHT22;5240;51.128;4.566;2022-11-10T14:39:54;14.40;99.90
10388;DHT22;5240;51.128;4.566;2022-11-10T14:42:23;14.40;99.90
10388;DHT22;5240;51.128;4.566;2022-11-10T14:45:05;14.30;99.90
10388;DHT22;5240;51.128;4.566;2022-11-10T14:47:35;14.30;99.90
10388;DHT22;5240;51.128;4.566;2022-11-10T14:50:16;14.30;99.90
10388;DHT22;5240;51.128;4.566;2022-11-10T14:52:45;14.20;99.90
10388;DHT22;5240;51.128;4.566;2022-11-10T14:55:17;14.20;99.90
10388;DHT22;5240;51.128;4.566;2022-11-10T14:57:53;14.10;99.90
10388;DHT22;5240;51.128;4.566;2022-11-10T15:00:25;14.10;99.90
10388;DHT22;5240;51.128;4.566;2022-11-10T15:02:56;14.00;99.90
10388;DHT22;5240;51.128;4.566;2022-11-10T15:05:24;14.00;99.90
10388;DHT22;5240;51.128;4.566;2022-11-10T15:07:53;14.00;99.90
10388;DHT22;5240;51.128;4.566;2022-11-10T15:10:22;13.90;99.90
10388;DHT22;5240;51.128;4.566;2022-11-10T15:13:05;13.90;99.90
10388;DHT22;5240;51.128;4.566;2022-11-10T15:15:32;13.90;99.90
10388;DHT22;5240;51.128;4.566;2022-11-10T15:18:00;13.90;99.90
10388;DHT22;5240;51.128;4.566;2022-11-10T15:20:34;13.90;99.90
10388;DHT22;5240;51.128;4.566;2022-11-10T15:23:02;13.80;99.90
10388;DHT22;5240;51.128;4.566;2022-11-10T15:25:33;13.70;99.90
10388;DHT22;5240;51.128;4.566;2022-11-10T15:28:04;13.70;99.90
10388;DHT22;5240;51.128;4.566;2022-11-10T15:30:31;13.70;99.90
10388;DHT22;5240;51.128;4.566;2022-11-10T15:33:08;13.70;99.90
10388;DHT22;5240;51.128;4.566;2022-11-10T15:35:37;13.60;99.90
10388;DHT22;5240;51.128;4.566;2022-11-10T15:38:36;13.50;99.90
10388;DHT22;5240;51.128;4.566;2022-11-10T15:41:29;13.40;99.90
10388;DHT22;5240;51.128;4.566;2022-11-10T15:44:16;13.40;99.90
10388;DHT22;5240;51.128;4.566;2022-11-10T15:46:44;13.30;99.90
10388;DHT22;5240;51.128;4.566;2022-11-10T15:49:18;13.20;99.90
10388;DHT22;5240;51.128;4.566;2022-11-10T15:51:46;13.20;99.90
10388;DHT22;5240;51.128;4.566;2022-11-10T15:54:17;13.20;99.90
10388;DHT22;5240;51.128;4.566;2022-11-10T15:56:47;13.10;99.90
10388;DHT22;5240;51.128;4.566;2022-11-10T15:59:14;13.00;99.90
10388;DHT22;5240;51.128;4.566;2022-11-10T16:01:41;12.90;99.90
10388;DHT22;5240;51.128;4.566;2022-11-10T16:04:08;12.90;99.90
10388;DHT22;5240;51.128;4.566;2022-11-10T16:06:37;12.90;99.90
10388;DHT22;5240;51.128;4.566;2022-11-10T16:09:06;12.90;99.90
10388;DHT22;5240;51.128;4.566;2022-11-10T16:11:33;12.90;99.90
10388;DHT22;5240;51.128;4.566;2022-11-10T16:14:02;12.90;99.90
10388;DHT22;5240;51.128;4.566;2022-11-10T16:16:29;12.90;99.90
10388;DHT22;5240;51.128;4.566;2022-11-10T16:18:57;12.90;99.90
10388;DHT22;5240;51.128;4.566;2022-11-10T16:21:24;13.00;99.90
10388;DHT22;5240;51.128;4.566;2022-11-10T16:23:53;13.00;99.90
10388;DHT22;5240;51.128;4.566;2022-11-10T16:26:22;13.00;99.90
10388;DHT22;5240;51.128;4.566;2022-11-10T16:28:49;12.90;99.90
10388;DHT22;5240;51.128;4.566;2022-11-10T16:31:18;12.80;99.90
10388;DHT22;5240;51.128;4.566;2022-11-10T16:33:46;12.70;99.90
10388;DHT22;5240;51.128;4.566;2022-11-10T16:36:20;12.70;99.90
10388;DHT22;5240;51.128;4.566;2022-11-10T16:38:48;12.60;99.90
10388;DHT22;5240;51.128;4.566;2022-11-10T16:41:17;12.60;99.90
10388;DHT22;5240;51.128;4.566;2022-11-10T16:43:44;12.60;99.90
10388;DHT22;5240;51.128;4.566;2022-11-10T16:46:17;12.50;99.90
10388;DHT22;5240;51.128;4.566;2022-11-10T16:48:46;12.50;99.90
10388;DHT22;5240;51.128;4.566;2022-11-10T16:51:14;12.50;99.90
10388;DHT22;5240;51.128;4.566;2022-11-10T16:53:42;12.40;99.90
10388;DHT22;5240;51.128;4.566;2022-11-10T16:56:13;12.40;99.90
10388;DHT22;5240;51.128;4.566;2022-11-10T16:58:42;12.40;99.90
10388;DHT22;5240;51.128;4.566;2022-11-10T17:01:15;12.40;99.90
10388;DHT22;5240;51.128;4.566;2022-11-10T17:03:46;12.40;99.90
10388;DHT22;5240;51.128;4.566;2022-11-10T17:06:15;12.40;99.90
10388;DHT22;5240;51.128;4.566;2022-11-10T17:08:43;12.40;99.90
10388;DHT22;5240;51.128;4.566;2022-11-10T17:11:12;12.30;99.90
10388;DHT22;5240;51.128;4.566;2022-11-10T17:13:39;12.30;99.90
10388;DHT22;5240;51.128;4.566;2022-11-10T17:16:17;12.20;99.90
10388;DHT22;5240;51.128;4.566;2022-11-10T17:18:45;12.20;99.90
10388;DHT22;5240;51.128;4.566;2022-11-10T17:21:13;12.10;99.90
10388;DHT22;5240;51.128;4.566;2022-11-10T17:23:40;12.10;99.90
10388;DHT22;5240;51.128;4.566;2022-11-10T17:26:08;12.10;99.90
10388;DHT22;5240;51.128;4.566;2022-11-10T17:28:35;12.10;99.90